Time;durP1;ratioP1;P1;durP2;ratioP2;P2;SDS_P1;SDS_P2;PMS_P1;PMS_P2;Temp;Humidity;BMP_temperature;BMP_pressure;BME280_temperature;BME280_humidity;BME280_pressure;Samples;Min_cycle;Max_cycle;Signal;HPM_P1;HPM_P2
2020/12/18 00:00:47;;;;;;;27.77;18.98;;;4.00;99.90;;;;;;5090952;28;20106;-77
2020/12/18 00:03:13;;;;;;;24.45;17.17;;;3.90;99.90;;;;;;5075294;28;20030;-79
2020/12/18 00:05:40;;;;;;;26.98;17.80;;;3.90;99.90;;;;;;5089197;28;20020;-78
2020/12/18 00:08:05;;;;;;;34.13;20.65;;;3.80;99.90;;;;;;5089273;28;20483;-77
2020/12/18 00:10:31;;;;;;;30.50;20.42;;;3.70;99.90;;;;;;5092478;28;20024;-77
2020/12/18 00:12:57;;;;;;;35.33;21.08;;;3.70;99.90;;;;;;5075499;28;20077;-74
2020/12/18 00:15:26;;;;;;;33.50;20.85;;;3.60;99.90;;;;;;5094187;28;20052;-77
2020/12/18 00:17:52;;;;;;;36.50;21.85;;;3.60;99.90;;;;;;5075414;28;20024;-76
2020/12/18 00:20:18;;;;;;;39.70;23.50;;;3.70;99.90;;;;;;5093028;28;20415;-77
2020/12/18 00:22:44;;;;;;;38.92;22.50;;;3.70;99.90;;;;;;5093277;28;20386;-75
2020/12/18 00:25:10;;;;;;;34.72;22.83;;;3.70;99.90;;;;;;5094111;28;20059;-77
2020/12/18 00:27:38;;;;;;;40.97;22.20;;;3.70;99.90;;;;;;5093965;28;20379;-77
2020/12/18 00:30:05;;;;;;;34.20;21.38;;;3.80;99.90;;;;;;5093150;28;20053;-77
2020/12/18 00:32:30;;;;;;;35.53;22.23;;;3.80;99.90;;;;;;5093810;28;20069;-77
2020/12/18 00:34:56;;;;;;;37.15;23.30;;;3.80;99.90;;;;;;5092974;28;20934;-72
2020/12/18 00:37:22;;;;;;;34.00;21.20;;;3.80;99.90;;;;;;5093236;28;20559;-77
2020/12/18 00:39:47;;;;;;;30.58;18.83;;;3.80;99.90;;;;;;5074712;28;20020;-76
2020/12/18 00:42:13;;;;;;;28.20;18.30;;;3.80;99.90;;;;;;5075203;28;20096;-76
2020/12/18 00:44:39;;;;;;;30.90;19.23;;;3.70;99.90;;;;;;5093986;28;20471;-75
2020/12/18 00:47:04;;;;;;;25.42;17.67;;;3.60;99.90;;;;;;5093172;28;20036;-76
2020/12/18 00:49:30;;;;;;;28.77;17.55;;;3.60;99.90;;;;;;5093284;28;20028;-76
2020/12/18 00:51:56;;;;;;;26.23;17.58;;;3.50;99.90;;;;;;5091572;28;20036;-77
2020/12/18 00:54:21;;;;;;;30.52;20.10;;;3.40;99.90;;;;;;5092560;28;20020;-75
2020/12/18 00:56:47;;;;;;;36.63;20.95;;;3.30;99.90;;;;;;5091409;28;20038;-76
2020/12/18 00:59:13;;;;;;;30.90;19.52;;;3.30;99.90;;;;;;5092761;28;20020;-75
2020/12/18 01:01:38;;;;;;;37.85;24.83;;;3.20;99.90;;;;;;5093010;28;20040;-76
2020/12/18 01:04:05;;;;;;;37.63;23.50;;;3.20;99.90;;;;;;5083704;28;20062;-76
2020/12/18 01:06:31;;;;;;;31.85;20.52;;;3.30;99.90;;;;;;5092546;28;20032;-75
2020/12/18 01:08:57;;;;;;;41.33;24.88;;;3.30;99.90;;;;;;5090679;28;20473;-75
2020/12/18 01:11:22;;;;;;;37.72;23.75;;;3.20;99.90;;;;;;5092966;28;20512;-70
2020/12/18 01:13:48;;;;;;;32.83;22.02;;;3.20;99.90;;;;;;5092364;28;20051;-77
2020/12/18 01:16:15;;;;;;;33.85;22.45;;;3.20;99.90;;;;;;5075023;28;20106;-76
2020/12/18 01:18:40;;;;;;;36.92;22.23;;;3.20;99.90;;;;;;5093066;28;20058;-75
2020/12/18 01:21:06;;;;;;;37.70;22.38;;;3.20;99.90;;;;;;5092490;28;20048;-74
2020/12/18 01:23:32;;;;;;;35.55;21.88;;;3.10;99.90;;;;;;5092479;28;20393;-73
2020/12/18 01:25:57;;;;;;;40.65;24.27;;;3.10;99.90;;;;;;5091771;28;20020;-77
2020/12/18 01:28:23;;;;;;;38.67;24.08;;;3.20;99.90;;;;;;5092215;28;20039;-76
2020/12/18 01:30:49;;;;;;;36.22;23.15;;;3.20;99.90;;;;;;5091247;28;20024;-76
2020/12/18 01:33:15;;;;;;;37.22;22.48;;;3.20;99.90;;;;;;5091286;28;20072;-76
2020/12/18 01:35:41;;;;;;;36.70;22.95;;;3.30;99.90;;;;;;5091635;28;20051;-76
2020/12/18 01:38:06;;;;;;;29.67;20.33;;;3.30;99.90;;;;;;5090923;28;20036;-76
2020/12/18 01:40:32;;;;;;;33.95;22.02;;;3.30;99.90;;;;;;5091537;28;20056;-73
2020/12/18 01:43:01;;;;;;;31.35;20.83;;;3.30;99.90;;;;;;5090552;28;20039;-73
2020/12/18 01:45:27;;;;;;;31.00;20.45;;;3.30;99.90;;;;;;5091949;28;20110;-75
2020/12/18 01:47:53;;;;;;;29.20;19.70;;;3.30;99.90;;;;;;5090285;28;20031;-74
2020/12/18 01:50:19;;;;;;;32.20;20.70;;;3.30;99.90;;;;;;5091381;28;20392;-69
2020/12/18 01:52:45;;;;;;;33.38;20.58;;;3.40;99.90;;;;;;5090891;28;20166;-73
2020/12/18 01:55:12;;;;;;;32.53;19.85;;;3.50;99.90;;;;;;5091966;28;20024;-76
2020/12/18 01:57:39;;;;;;;30.60;19.60;;;3.50;99.90;;;;;;5091934;28;20039;-76
2020/12/18 02:00:07;;;;;;;27.48;18.17;;;3.50;99.90;;;;;;5091642;28;20058;-75
2020/12/18 02:02:32;;;;;;;30.10;20.05;;;3.50;99.90;;;;;;5092144;28;20032;-76
2020/12/18 02:04:58;;;;;;;27.10;18.88;;;3.50;99.90;;;;;;5091193;28;20028;-76
2020/12/18 02:07:27;;;;;;;40.42;23.40;;;3.50;99.90;;;;;;5092236;28;20380;-76
2020/12/18 02:09:53;;;;;;;32.38;20.50;;;3.40;99.90;;;;;;5090830;28;20063;-72
2020/12/18 02:12:20;;;;;;;29.67;18.45;;;3.40;99.90;;;;;;5092199;28;20468;-75
2020/12/18 02:14:52;;;;;;;32.38;20.75;;;3.40;99.90;;;;;;5091260;28;20024;-74
2020/12/18 02:17:19;;;;;;;31.63;20.13;;;3.40;99.90;;;;;;5074106;28;20020;-76
2020/12/18 02:19:51;;;;;;;29.25;19.10;;;3.40;99.90;;;;;;5091016;28;20536;-74
2020/12/18 02:22:19;;;;;;;30.40;18.92;;;3.30;99.90;;;;;;5091519;28;20493;-73
2020/12/18 02:25:08;;;;;;;30.33;19.30;;;3.30;99.90;;;;;;5091396;28;20028;-73
2020/12/18 02:27:35;;;;;;;31.98;21.23;;;3.20;99.90;;;;;;5092248;28;20467;-74
2020/12/18 02:30:02;;;;;;;33.70;20.98;;;3.20;99.90;;;;;;5090291;28;20483;-76
2020/12/18 02:32:27;;;;;;;31.75;19.45;;;3.10;99.90;;;;;;5073661;28;20028;-75
2020/12/18 02:34:53;;;;;;;35.03;22.45;;;3.10;99.90;;;;;;5090821;28;20358;-77
2020/12/18 02:37:19;;;;;;;42.80;24.75;;;3.10;99.90;;;;;;5091137;28;20028;-71
2020/12/18 02:39:45;;;;;;;38.13;23.63;;;3.10;99.90;;;;;;5090924;28;20024;-76
2020/12/18 02:42:11;;;;;;;33.90;21.88;;;3.10;99.90;;;;;;5091423;28;20044;-77
2020/12/18 02:44:36;;;;;;;30.67;20.48;;;3.10;99.90;;;;;;5090741;28;20039;-78
2020/12/18 02:47:02;;;;;;;44.60;25.88;;;3.10;99.90;;;;;;5090743;28;20028;-74
2020/12/18 02:49:28;;;;;;;54.90;30.17;;;3.00;99.90;;;;;;5086559;28;20111;-74
2020/12/18 02:51:55;;;;;;;40.20;24.35;;;3.10;99.90;;;;;;5089605;28;20182;-73
2020/12/18 02:54:20;;;;;;;36.47;22.48;;;3.10;99.90;;;;;;5088439;28;20028;-77
2020/12/18 02:56:46;;;;;;;37.50;22.30;;;3.10;99.90;;;;;;5091277;28;20024;-75
2020/12/18 02:59:12;;;;;;;36.10;20.98;;;3.10;99.90;;;;;;5073171;28;20059;-78
2020/12/18 03:01:37;;;;;;;41.92;23.15;;;3.00;99.90;;;;;;5090906;28;20543;-78
2020/12/18 03:04:03;;;;;;;39.25;24.50;;;3.00;99.90;;;;;;5090352;28;20544;-77
2020/12/18 03:06:29;;;;;;;35.85;22.65;;;2.90;99.90;;;;;;5091291;28;20036;-77
2020/12/18 03:08:54;;;;;;;35.58;22.88;;;2.90;99.90;;;;;;5090060;28;20043;-78
2020/12/18 03:11:20;;;;;;;39.25;22.38;;;2.90;99.90;;;;;;5091096;28;20074;-78
2020/12/18 03:13:49;;;;;;;33.10;21.08;;;2.90;99.90;;;;;;5091015;28;20487;-76
2020/12/18 03:16:15;;;;;;;34.05;21.40;;;2.90;99.90;;;;;;5091343;28;20103;-78
2020/12/18 03:18:41;;;;;;;34.83;21.73;;;2.80;99.90;;;;;;5091261;28;20413;-78
2020/12/18 03:21:07;;;;;;;32.95;21.13;;;2.90;99.90;;;;;;5090011;28;20061;-78
2020/12/18 03:23:32;;;;;;;33.50;20.73;;;2.90;99.90;;;;;;5090416;28;20464;-75
2020/12/18 03:25:58;;;;;;;34.10;21.73;;;2.90;99.90;;;;;;5090289;28;20034;-78
2020/12/18 03:28:24;;;;;;;35.20;21.58;;;2.90;99.90;;;;;;5091164;28;20082;-78
2020/12/18 03:30:50;;;;;;;34.90;21.83;;;2.90;99.90;;;;;;5090320;28;20376;-77
2020/12/18 03:33:15;;;;;;;36.60;22.25;;;3.00;99.90;;;;;;5090836;28;20496;-78
2020/12/18 03:35:41;;;;;;;38.63;22.85;;;3.00;99.90;;;;;;5090491;28;20054;-77
2020/12/18 03:38:07;;;;;;;40.30;24.40;;;3.00;99.90;;;;;;5090104;28;20086;-77
2020/12/18 03:40:32;;;;;;;36.58;22.88;;;3.10;99.90;;;;;;5064296;28;20056;-77
2020/12/18 03:42:58;;;;;;;41.67;24.35;;;3.20;99.90;;;;;;5090155;28;20047;-74
2020/12/18 03:45:24;;;;;;;37.13;22.45;;;3.20;99.90;;;;;;5090953;28;20086;-76
2020/12/18 03:47:50;;;;;;;32.90;22.48;;;3.30;99.90;;;;;;5072472;28;20024;-75
2020/12/18 03:50:15;;;;;;;33.53;21.48;;;3.40;99.90;;;;;;5090672;28;20403;-78
2020/12/18 03:52:41;;;;;;;32.95;21.08;;;3.50;99.90;;;;;;5090539;28;20034;-77
2020/12/18 03:55:07;;;;;;;32.67;21.00;;;3.50;99.90;;;;;;5091596;28;20617;-77
2020/12/18 03:57:33;;;;;;;32.78;21.88;;;3.60;99.90;;;;;;5076632;28;20043;-72
2020/12/18 03:59:58;;;;;;;30.73;20.52;;;3.70;99.90;;;;;;5093624;28;20050;-77
2020/12/18 04:02:24;;;;;;;35.20;21.15;;;3.70;99.90;;;;;;5076628;28;20028;-77
2020/12/18 04:04:50;;;;;;;31.05;20.38;;;3.80;99.90;;;;;;5094014;28;20035;-75
2020/12/18 04:07:17;;;;;;;35.38;20.35;;;3.90;99.90;;;;;;5092466;28;20439;-77
2020/12/18 04:09:45;;;;;;;32.55;21.05;;;4.00;99.90;;;;;;5094408;28;20024;-77
2020/12/18 04:12:12;;;;;;;30.42;19.13;;;4.00;99.90;;;;;;5093217;28;20032;-72
2020/12/18 04:14:38;;;;;;;29.08;18.13;;;4.10;99.90;;;;;;5076462;28;20047;-77
2020/12/18 04:17:04;;;;;;;23.13;17.75;;;4.10;99.90;;;;;;5093524;28;20385;-78
2020/12/18 04:19:30;;;;;;;26.77;17.42;;;4.10;99.90;;;;;;5093451;28;20028;-78
2020/12/18 04:21:56;;;;;;;26.02;17.48;;;4.10;99.90;;;;;;5093546;28;20090;-77
2020/12/18 04:24:22;;;;;;;24.25;15.93;;;4.10;99.90;;;;;;5093990;28;20024;-76
2020/12/18 04:26:48;;;;;;;25.27;15.50;;;4.10;99.90;;;;;;5093785;28;20413;-75
2020/12/18 04:29:15;;;;;;;26.73;16.60;;;4.10;99.90;;;;;;5093711;28;20016;-79
2020/12/18 04:31:40;;;;;;;26.23;16.88;;;4.00;99.90;;;;;;5093920;28;20028;-77
2020/12/18 04:34:06;;;;;;;23.33;15.88;;;4.00;99.90;;;;;;5093473;28;20036;-76
2020/12/18 04:36:33;;;;;;;29.08;17.95;;;4.00;99.90;;;;;;5075663;28;20035;-77
2020/12/18 04:38:58;;;;;;;22.75;16.38;;;4.00;99.90;;;;;;5092558;28;20027;-78
2020/12/18 04:41:26;;;;;;;22.63;16.45;;;3.90;99.90;;;;;;5092997;28;20510;-71
2020/12/18 04:43:56;;;;;;;29.73;18.15;;;3.90;99.90;;;;;;5093074;28;20520;-76
2020/12/18 04:46:22;;;;;;;29.25;18.42;;;3.80;99.90;;;;;;5085142;28;20047;-78
2020/12/18 04:48:49;;;;;;;26.33;17.98;;;3.80;99.90;;;;;;5093780;28;20388;-75
2020/12/18 04:51:20;;;;;;;32.13;19.25;;;3.80;99.90;;;;;;5074197;28;20085;-77
2020/12/18 04:53:51;;;;;;;28.63;18.55;;;3.80;99.90;;;;;;5093583;28;20129;-75
2020/12/18 04:56:24;;;;;;;30.45;19.02;;;3.70;99.90;;;;;;5093106;28;20079;-77
2020/12/18 04:58:54;;;;;;;25.83;17.88;;;3.70;99.90;;;;;;5092956;28;20093;-74
2020/12/18 05:01:22;;;;;;;27.27;18.65;;;3.60;99.90;;;;;;5085247;28;20040;-77
2020/12/18 05:03:49;;;;;;;29.83;19.25;;;3.60;99.90;;;;;;5093586;28;20063;-74
2020/12/18 05:06:15;;;;;;;36.50;23.65;;;3.50;99.90;;;;;;5073664;28;20028;-77
2020/12/18 05:08:43;;;;;;;33.25;22.55;;;3.50;99.90;;;;;;5093396;28;20055;-74
2020/12/18 05:11:37;;;;;;;41.25;23.70;;;3.50;99.90;;;;;;5091605;28;20809;-77
2020/12/18 05:14:03;;;;;;;41.55;24.55;;;3.50;99.90;;;;;;5053194;28;20086;-74
2020/12/18 05:16:29;;;;;;;40.40;24.33;;;3.50;99.90;;;;;;5092769;28;20031;-71
2020/12/18 05:19:03;;;;;;;36.60;22.65;;;3.50;99.90;;;;;;5074083;28;20468;-76
2020/12/18 05:21:29;;;;;;;39.35;22.30;;;3.40;99.90;;;;;;5092931;28;20044;-71
2020/12/18 05:23:55;;;;;;;38.78;23.48;;;3.40;99.90;;;;;;5092184;28;20066;-76
2020/12/18 05:26:26;;;;;;;36.90;23.23;;;3.40;99.90;;;;;;5092748;28;20043;-76
2020/12/18 05:29:05;;;;;;;39.45;24.23;;;3.40;99.90;;;;;;5073835;28;20035;-75
2020/12/18 05:31:32;;;;;;;34.42;23.25;;;3.40;99.90;;;;;;5092713;28;20070;-74
2020/12/18 05:34:00;;;;;;;39.38;22.95;;;3.40;99.90;;;;;;5091455;28;20106;-74
2020/12/18 05:36:26;;;;;;;34.60;22.60;;;3.50;99.90;;;;;;5092466;28;20065;-76
2020/12/18 05:38:54;;;;;;;32.08;21.30;;;3.40;99.90;;;;;;5092149;28;20020;-75
2020/12/18 05:41:24;;;;;;;31.85;21.70;;;3.40;99.90;;;;;;5091991;28;20071;-74
2020/12/18 05:43:50;;;;;;;;;;;3.50;99.90;;;;;;5092700;28;20418;-72
2020/12/18 05:46:16;;;;;;;31.40;20.40;;;3.50;99.90;;;;;;5091062;28;19914;-77
2020/12/18 05:48:54;;;;;;;32.28;20.83;;;3.50;99.90;;;;;;5091806;28;20849;-76
2020/12/18 05:51:30;;;;;;;32.47;20.65;;;3.60;99.90;;;;;;5085531;28;20056;-75
2020/12/18 05:54:15;;;;;;;29.75;19.52;;;3.60;99.90;;;;;;5090956;28;20473;-69
2020/12/18 05:56:42;;;;;;;26.48;19.08;;;3.60;99.90;;;;;;5092160;28;20054;-77
2020/12/18 05:59:14;;;;;;;31.55;19.58;;;3.60;99.90;;;;;;5090901;28;20038;-76
2020/12/18 06:01:42;;;;;;;31.13;18.95;;;3.60;99.90;;;;;;5080503;28;20457;-76
2020/12/18 06:04:21;;;;;;;24.60;17.33;;;3.60;99.90;;;;;;5090097;28;20063;-75
2020/12/18 06:06:51;;;;;;;27.27;17.58;;;3.50;99.90;;;;;;5081428;28;20077;-77
2020/12/18 06:09:20;;;;;;;26.73;17.60;;;3.50;99.90;;;;;;5073456;28;20032;-76
2020/12/18 06:11:46;;;;;;;25.38;17.08;;;3.50;99.90;;;;;;5092138;28;20039;-77
2020/12/18 06:14:14;;;;;;;28.40;17.98;;;3.40;99.90;;;;;;5090905;28;20054;-77
2020/12/18 06:16:53;;;;;;;28.33;18.17;;;3.40;99.90;;;;;;5091846;28;20116;-77
2020/12/18 06:19:21;;;;;;;22.00;16.13;;;3.30;99.90;;;;;;5090780;28;20024;-77
2020/12/18 06:21:55;;;;;;;24.58;17.90;;;3.30;99.90;;;;;;5091722;28;20051;-77
2020/12/18 06:24:21;;;;;;;47.63;29.35;;;3.20;99.90;;;;;;5073604;28;20031;-72
2020/12/18 06:26:53;;;;;;;31.83;20.42;;;3.30;99.90;;;;;;5091736;28;20116;-71
2020/12/18 06:29:21;;;;;;;34.78;21.10;;;3.20;99.90;;;;;;5091387;28;20021;-74
2020/12/18 06:31:47;;;;;;;29.92;19.63;;;3.20;99.90;;;;;;5072490;28;20420;-76
2020/12/18 06:34:30;;;;;;;34.70;20.50;;;3.20;99.90;;;;;;5091016;28;20077;-76
2020/12/18 06:36:58;;;;;;;35.97;22.15;;;3.20;99.90;;;;;;5090318;28;20050;-78
2020/12/18 06:39:26;;;;;;;31.30;20.35;;;3.20;99.90;;;;;;5086606;28;20112;-75
2020/12/18 06:42:17;;;;;;;35.80;22.25;;;3.20;99.90;;;;;;5064986;28;20079;-75
2020/12/18 06:44:48;;;;;;;34.67;21.15;;;3.30;99.90;;;;;;5082280;28;20028;-74
2020/12/18 06:47:28;;;;;;;36.22;23.30;;;3.30;99.90;;;;;;5066636;28;20587;-76
2020/12/18 06:49:59;;;;;;;33.00;22.17;;;3.40;99.90;;;;;;5082389;28;20024;-75
2020/12/18 06:52:41;;;;;;;41.15;24.40;;;3.50;99.90;;;;;;5081876;28;20331;-70
2020/12/18 06:55:09;;;;;;;32.70;21.30;;;3.60;99.90;;;;;;5082572;28;20107;-76
2020/12/18 06:57:34;;;;;;;28.92;19.35;;;3.70;99.90;;;;;;5083624;28;20032;-76
2020/12/18 07:00:22;;;;;;;34.80;21.33;;;3.70;99.90;;;;;;5081996;28;20381;-77
2020/12/18 07:02:50;;;;;;;34.00;20.55;;;3.80;99.90;;;;;;5067745;28;20036;-77
2020/12/18 07:05:37;;;;;;;32.33;21.20;;;3.90;99.90;;;;;;5080501;28;20465;-77
2020/12/18 07:08:06;;;;;;;33.30;19.58;;;3.90;99.90;;;;;;5081378;28;20029;-76
2020/12/18 07:10:36;;;;;;;32.58;21.50;;;4.00;99.90;;;;;;5081876;28;20020;-75
2020/12/18 07:13:02;;;;;;;38.17;22.10;;;4.10;99.90;;;;;;5079686;28;20506;-72
2020/12/18 07:15:46;;;;;;;29.92;20.35;;;4.20;99.90;;;;;;5083985;28;20031;-77
2020/12/18 07:18:23;;;;;;;27.10;18.55;;;4.10;99.90;;;;;;5081638;28;20032;-74
2020/12/18 07:20:51;;;;;;;36.55;19.38;;;4.10;99.90;;;;;;5079568;28;20036;-76
2020/12/18 07:23:17;;;;;;;24.88;17.90;;;4.10;99.90;;;;;;5078007;28;20060;-73
2020/12/18 07:25:43;;;;;;;29.30;18.00;;;4.10;99.90;;;;;;5083762;28;20465;-76
2020/12/18 07:28:10;;;;;;;25.77;17.88;;;4.10;99.90;;;;;;5080666;28;20046;-73
2020/12/18 07:30:46;;;;;;;25.73;17.85;;;4.00;99.90;;;;;;5081028;28;20021;-78
2020/12/18 07:33:13;;;;;;;26.75;18.13;;;4.10;99.90;;;;;;5086629;28;20038;-77
2020/12/18 07:35:41;;;;;;;33.72;19.77;;;4.10;99.90;;;;;;5085659;28;20377;-77
2020/12/18 07:38:18;;;;;;;28.58;18.13;;;4.10;99.90;;;;;;5082460;28;20158;-71
2020/12/18 07:40:45;;;;;;;26.98;17.42;;;4.10;99.90;;;;;;5083855;28;20052;-75
2020/12/18 07:43:15;;;;;;;28.05;18.63;;;4.10;99.90;;;;;;5085471;28;20039;-76
2020/12/18 07:45:43;;;;;;;28.55;17.42;;;4.10;99.90;;;;;;5094585;28;20472;-75
2020/12/18 07:48:15;;;;;;;29.98;17.85;;;4.10;99.90;;;;;;5094055;28;20052;-71
2020/12/18 07:50:52;;;;;;;28.63;17.45;;;4.10;99.90;;;;;;5076297;28;20481;-84
2020/12/18 07:53:20;;;;;;;27.75;18.02;;;4.10;99.90;;;;;;5092768;28;20075;-80
2020/12/18 07:56:04;;;;;;;25.60;16.80;;;4.20;99.90;;;;;;5081716;28;20465;-79
2020/12/18 07:58:31;;;;;;;26.38;17.80;;;4.20;99.90;;;;;;5083413;28;20536;-77
2020/12/18 08:01:10;;;;;;;25.17;17.42;;;4.20;99.90;;;;;;5086850;28;20389;-76
2020/12/18 08:03:43;;;;;;;25.65;18.48;;;4.30;99.90;;;;;;5071822;28;20123;-76
2020/12/18 08:06:22;;;;;;;26.42;18.65;;;4.30;99.90;;;;;;5084110;28;20024;-82
2020/12/18 08:08:51;;;;;;;22.33;16.13;;;4.40;99.90;;;;;;5085321;28;20031;-81
2020/12/18 08:11:18;;;;;;;29.77;19.27;;;4.40;99.90;;;;;;5084976;28;20251;-80
2020/12/18 08:13:44;;;;;;;27.23;16.98;;;4.40;99.90;;;;;;5082937;28;20408;-79
2020/12/18 08:16:24;;;;;;;24.20;16.92;;;4.50;99.90;;;;;;5084884;28;20051;-78
2020/12/18 08:19:00;;;;;;;22.23;15.60;;;4.60;99.90;;;;;;5082985;28;20020;-77
2020/12/18 08:21:31;;;;;;;27.77;17.52;;;4.60;99.90;;;;;;5083231;28;20029;-78
2020/12/18 08:24:13;;;;;;;28.50;18.10;;;4.70;99.90;;;;;;5084677;28;20128;-75
2020/12/18 08:26:56;;;;;;;23.17;16.35;;;4.80;99.90;;;;;;5069322;28;20031;-71
2020/12/18 08:29:23;;;;;;;22.90;15.50;;;4.80;99.90;;;;;;5083780;28;20031;-85
2020/12/18 08:31:56;;;;;;;22.90;15.85;;;4.90;99.90;;;;;;5083859;28;20393;-87
2020/12/18 08:34:26;;;;;;;26.98;15.55;;;5.00;99.90;;;;;;5084316;28;20027;-86
2020/12/18 08:36:52;;;;;;;24.77;16.65;;;5.00;99.90;;;;;;5082589;28;20017;-84
2020/12/18 08:39:18;;;;;;;26.58;17.02;;;5.10;99.90;;;;;;5079687;28;20766;-86
2020/12/18 08:41:52;;;;;;;21.10;15.57;;;5.10;99.90;;;;;;5083044;28;20052;-82
2020/12/18 08:44:23;;;;;;;22.88;16.30;;;5.20;99.90;;;;;;5081214;28;20453;-78
2020/12/18 08:46:49;;;;;;;24.40;15.48;;;5.20;99.90;;;;;;5070212;28;20032;-77
2020/12/18 08:49:25;;;;;;;21.40;14.95;;;5.30;99.90;;;;;;5079327;28;20233;-77
2020/12/18 08:51:52;;;;;;;23.30;15.55;;;5.30;99.90;;;;;;5076514;28;20032;-78
2020/12/18 08:54:22;;;;;;;22.10;15.45;;;5.40;99.90;;;;;;5077043;28;20098;-76
2020/12/18 08:57:09;;;;;;;21.05;15.30;;;5.50;99.90;;;;;;5086958;28;20103;-80
2020/12/18 08:59:34;;;;;;;21.65;15.18;;;5.50;99.90;;;;;;5091742;28;20020;-78
2020/12/18 09:02:00;;;;;;;19.80;15.27;;;5.60;99.90;;;;;;5067662;28;20085;-79
2020/12/18 09:04:26;;;;;;;18.15;13.90;;;5.70;99.90;;;;;;5082102;28;20028;-81
2020/12/18 09:06:51;;;;;;;20.98;13.85;;;5.70;99.90;;;;;;5079832;28;20067;-79
2020/12/18 09:09:18;;;;;;;21.63;14.27;;;5.80;99.90;;;;;;5068857;28;20108;-76
2020/12/18 09:11:46;;;;;;;18.65;13.57;;;5.90;99.90;;;;;;5078670;28;20054;-80
2020/12/18 09:14:29;;;;;;;16.40;12.50;;;5.90;99.90;;;;;;5077032;28;20082;-79
2020/12/18 09:16:58;;;;;;;20.02;13.73;;;6.00;99.90;;;;;;5080137;28;20427;-77
2020/12/18 09:19:24;;;;;;;20.25;13.43;;;6.10;99.90;;;;;;5085684;28;20028;-79
2020/12/18 09:21:50;;;;;;;18.70;13.07;;;6.20;99.90;;;;;;5081057;28;20202;-74
2020/12/18 09:24:19;;;;;;;18.73;12.82;;;6.30;99.90;;;;;;5086034;28;20537;-78
2020/12/18 09:26:45;;;;;;;22.17;14.57;;;6.30;99.90;;;;;;5081830;28;20066;-79
2020/12/18 09:29:17;;;;;;;20.77;13.00;;;6.40;99.90;;;;;;5079888;28;20029;-77
2020/12/18 09:31:43;;;;;;;28.40;18.20;;;6.40;99.90;;;;;;5078121;28;20090;-79
2020/12/18 09:34:16;;;;;;;19.55;15.45;;;6.40;99.90;;;;;;5078974;28;20028;-78
2020/12/18 09:36:42;;;;;;;16.88;12.98;;;6.40;99.90;;;;;;5079643;28;20468;-76
2020/12/18 09:39:07;;;;;;;15.70;12.35;;;6.40;99.90;;;;;;5078996;28;20119;-78
2020/12/18 09:41:33;;;;;;;22.73;13.35;;;6.30;99.90;;;;;;5083751;28;20103;-77
2020/12/18 09:43:59;;;;;;;20.23;14.02;;;6.30;99.90;;;;;;5085338;28;20032;-75
2020/12/18 09:46:25;;;;;;;16.90;13.80;;;6.30;99.90;;;;;;5063693;28;20031;-74
2020/12/18 09:48:51;;;;;;;17.80;13.45;;;6.30;99.90;;;;;;5082471;28;20436;-81
2020/12/18 09:51:18;;;;;;;18.67;13.40;;;6.30;99.90;;;;;;5079422;28;20032;-76
2020/12/18 09:53:45;;;;;;;19.65;13.52;;;6.30;99.90;;;;;;5085272;28;20103;-77
2020/12/18 09:56:11;;;;;;;20.83;12.98;;;6.30;99.90;;;;;;5081897;28;20020;-78
2020/12/18 09:58:37;;;;;;;19.73;13.63;;;6.40;99.90;;;;;;5084071;28;20500;-79
2020/12/18 10:01:04;;;;;;;18.23;12.85;;;6.40;99.90;;;;;;5080029;28;20032;-76
2020/12/18 10:03:29;;;;;;;19.58;12.52;;;6.50;99.90;;;;;;5083948;28;20021;-77
2020/12/18 10:05:55;;;;;;;19.20;12.57;;;6.60;99.90;;;;;;5084260;28;20043;-75
2020/12/18 10:08:21;;;;;;;15.32;11.60;;;6.60;99.90;;;;;;5066644;28;20028;-79
2020/12/18 10:10:46;;;;;;;15.63;12.43;;;6.70;99.90;;;;;;5079651;28;20032;-80
2020/12/18 10:13:14;;;;;;;22.58;13.13;;;6.80;99.90;;;;;;5081477;28;20032;-81
2020/12/18 10:15:39;;;;;;;20.40;12.32;;;6.80;99.90;;;;;;5083994;28;20101;-80
2020/12/18 10:18:05;;;;;;;16.92;12.13;;;6.90;99.90;;;;;;5081762;28;20441;-77
2020/12/18 10:20:31;;;;;;;19.70;13.82;;;7.00;99.90;;;;;;5081415;28;20028;-76
2020/12/18 10:22:57;;;;;;;17.67;13.55;;;7.00;99.90;;;;;;5067102;28;20119;-77
2020/12/18 10:25:22;;;;;;;16.17;12.40;;;7.10;99.90;;;;;;5082130;28;20050;-82
2020/12/18 10:27:48;;;;;;;16.30;12.48;;;7.10;99.90;;;;;;5081636;28;20376;-79
2020/12/18 10:30:14;;;;;;;16.15;11.43;;;7.10;99.90;;;;;;5080649;28;20028;-81
2020/12/18 10:32:40;;;;;;;14.55;11.35;;;7.10;99.90;;;;;;5081392;28;20511;-85
2020/12/18 10:35:07;;;;;;;16.95;11.70;;;7.20;99.90;;;;;;5079645;28;20115;-74
2020/12/18 10:37:33;;;;;;;17.02;11.75;;;7.20;99.90;;;;;;5079993;28;20028;-81
2020/12/18 10:39:59;;;;;;;16.27;11.95;;;7.30;99.90;;;;;;5079514;28;20040;-76
2020/12/18 10:42:25;;;;;;;20.00;12.40;;;7.30;99.90;;;;;;5081637;28;20071;-80
2020/12/18 10:44:51;;;;;;;19.17;13.52;;;7.30;99.90;;;;;;5081398;28;20123;-82
2020/12/18 10:47:16;;;;;;;16.05;11.68;;;7.40;99.90;;;;;;5078714;28;20504;-79
2020/12/18 10:49:42;;;;;;;22.30;12.07;;;7.40;99.90;;;;;;5077130;28;20469;-77
2020/12/18 10:52:08;;;;;;;18.30;12.25;;;7.30;99.90;;;;;;5084005;28;20043;-81
2020/12/18 10:54:34;;;;;;;17.80;12.15;;;7.40;99.90;;;;;;5082927;28;20024;-79
2020/12/18 10:57:00;;;;;;;17.35;11.80;;;7.50;99.90;;;;;;5078379;28;20016;-77
2020/12/18 10:59:32;;;;;;;17.27;12.00;;;7.50;99.90;;;;;;5078187;28;20059;-81
2020/12/18 11:01:59;;;;;;;16.92;11.40;;;7.60;99.90;;;;;;5081405;28;20024;-76
2020/12/18 11:04:25;;;;;;;16.63;12.05;;;7.50;99.90;;;;;;5078159;28;20016;-79
2020/12/18 11:06:51;;;;;;;16.48;11.82;;;7.60;99.90;;;;;;5083041;28;20025;-78
2020/12/18 11:09:17;;;;;;;20.00;13.45;;;7.60;99.90;;;;;;5077419;28;20019;-83
2020/12/18 11:11:50;;;;;;;16.63;12.23;;;7.70;99.90;;;;;;5079006;28;20032;-84
2020/12/18 11:14:16;;;;;;;17.33;13.25;;;7.70;99.90;;;;;;5081616;28;20058;-81
2020/12/18 11:16:42;;;;;;;25.05;12.60;;;7.80;99.90;;;;;;5080198;28;20114;-85
2020/12/18 11:19:08;;;;;;;19.90;12.75;;;7.80;99.90;;;;;;5061073;28;20031;-82
2020/12/18 11:21:34;;;;;;;15.98;11.77;;;7.90;99.90;;;;;;5078432;28;20029;-82
2020/12/18 11:23:59;;;;;;;19.17;11.98;;;7.90;99.90;;;;;;5079734;28;20028;-78
2020/12/18 11:26:25;;;;;;;17.55;11.80;;;8.00;99.90;;;;;;5079613;28;20032;-84
2020/12/18 11:28:52;;;;;;;16.25;12.50;;;8.00;99.90;;;;;;5081547;28;20461;-85
2020/12/18 11:31:18;;;;;;;15.80;11.70;;;8.10;99.90;;;;;;5064755;28;20499;-84
2020/12/18 11:33:44;;;;;;;17.75;12.90;;;8.10;99.90;;;;;;5082953;28;20028;-88
2020/12/18 11:36:10;;;;;;;20.25;12.63;;;8.20;99.90;;;;;;5082249;28;20026;-88
2020/12/18 11:38:36;;;;;;;16.95;11.25;;;8.20;99.90;;;;;;5079045;28;20066;-78
2020/12/18 11:41:03;;;;;;;17.77;11.27;;;8.20;99.90;;;;;;5080397;28;20049;-82
2020/12/18 11:43:28;;;;;;;17.05;12.40;;;8.30;99.90;;;;;;5078081;28;20055;-84
2020/12/18 11:45:54;;;;;;;15.75;11.85;;;8.30;99.90;;;;;;5081312;28;20047;-85
2020/12/18 11:48:20;;;;;;;16.15;12.07;;;8.40;99.90;;;;;;5060653;28;20066;-85
2020/12/18 11:50:46;;;;;;;15.35;11.23;;;8.50;99.90;;;;;;5058114;28;20048;-86
2020/12/18 11:53:12;;;;;;;16.08;11.18;;;8.60;99.90;;;;;;5081324;28;20095;-85
2020/12/18 11:55:38;;;;;;;18.60;11.75;;;8.60;99.90;;;;;;5079405;28;20112;-87
2020/12/18 11:58:04;;;;;;;15.70;10.70;;;8.70;99.90;;;;;;5079965;28;20095;-84
2020/12/18 12:00:31;;;;;;;19.92;10.82;;;8.80;99.90;;;;;;5061802;28;20047;-78
2020/12/18 12:02:57;;;;;;;16.60;11.77;;;8.90;99.90;;;;;;5080651;28;20512;-80
2020/12/18 12:05:23;;;;;;;19.05;11.35;;;9.00;99.90;;;;;;5080685;28;20024;-77
2020/12/18 12:07:50;;;;;;;15.55;11.38;;;9.10;99.90;;;;;;5078786;28;20016;-78
2020/12/18 12:10:18;;;;;;;17.65;10.52;;;9.20;99.90;;;;;;5080967;28;20128;-76
2020/12/18 12:12:44;;;;;;;21.63;10.82;;;9.30;99.90;;;;;;5079105;28;20086;-76
2020/12/18 12:15:10;;;;;;;14.65;10.63;;;9.30;99.90;;;;;;5079201;28;20017;-77
2020/12/18 12:17:36;;;;;;;14.80;10.98;;;9.40;99.90;;;;;;5082655;28;20040;-79
2020/12/18 12:20:02;;;;;;;16.15;11.32;;;9.50;99.90;;;;;;5083725;28;20026;-77
2020/12/18 12:22:28;;;;;;;14.60;10.73;;;9.50;99.50;;;;;;5082594;28;20107;-80
2020/12/18 12:24:55;;;;;;;15.75;10.95;;;9.60;99.00;;;;;;5065747;28;20034;-79
2020/12/18 12:27:22;;;;;;;17.45;10.90;;;9.60;98.80;;;;;;5081817;28;20025;-78
2020/12/18 12:29:48;;;;;;;16.58;10.20;;;9.70;97.60;;;;;;5083013;28;20016;-78
2020/12/18 12:32:14;;;;;;;20.27;13.05;;;9.80;97.40;;;;;;5082521;28;20093;-76
2020/12/18 12:34:41;;;;;;;14.55;10.65;;;9.80;96.80;;;;;;5082247;28;20051;-79
2020/12/18 12:37:06;;;;;;;17.67;10.75;;;9.80;96.60;;;;;;5082026;28;20398;-75
2020/12/18 12:39:32;;;;;;;18.23;11.00;;;9.90;96.00;;;;;;5083705;28;20024;-79
2020/12/18 12:42:00;;;;;;;18.33;11.50;;;9.90;96.60;;;;;;5069240;28;20044;-75